Archival Weather

Chicago O'Hare International

Chicago, Illinois (KORD)

Report from: Tuesday, September 19, 2023 2:51 AM CDT
Current time: Friday, June 21, 2024 6:07 PM CDT

Current weather – Weather history – Daily summaries
Weather forecast

Temperature15.0°C (59.0°F)
Dew point11.1°C (52.0°F)
Winds 4 kts (2.1 m/s, 4.6 mph) South-Southeast (150°)
Visibility10 mi. (16.1 km)
Clouds Few clouds 7,000 ft. (2,134 m)
Scattered clouds 12,000 ft. (3,658 m)
Ceiling: Broken clouds 25,000 ft. (7,620 m)
Altimeter30.03 in.Hg (1017 mB)
Relative humidity78 %
Density altitude73 ft. (22 m)
Sea-level pressure101.7 kPa (1017 mB, 30.02 in.Hg)
Remarks Automated weather observing station with precipitation discriminator
Flight conditions Visual Meteorological Conditions
Raw dataKORD 190751Z 15004KT 10SM FEW070 SCT120 BKN250 15/11 A3003 RMK AO2 SLP166 T01500111
An error has occurred. This application may no longer respond until reloaded. Reload 🗙